createdAt,value
2017-07-25T00:00:57.529Z,0
2017-07-25T00:01:57.864Z,0
2017-07-25T00:03:57.612Z,0
2017-07-25T00:05:12.534Z,0
2017-07-25T00:05:57.986Z,0
2017-07-25T00:06:57.972Z,0
2017-07-25T00:07:57.721Z,0
2017-07-25T00:09:12.330Z,0
2017-07-25T00:10:12.670Z,0
2017-07-25T00:10:58.071Z,0
2017-07-25T00:11:57.809Z,0
2017-07-25T00:12:58.392Z,0
2017-07-25T00:13:58.174Z,0
2017-07-25T00:14:58.161Z,0
2017-07-25T00:15:58.222Z,0
2017-07-25T00:16:58.240Z,0
2017-07-25T00:17:57.949Z,0
2017-07-25T00:18:58.269Z,0
2017-07-25T00:21:12.950Z,0
2017-07-25T00:21:58.355Z,0
2017-07-25T00:22:58.391Z,0
2017-07-25T00:23:58.110Z,0
2017-07-25T00:24:58.450Z,0
2017-07-25T00:26:13.058Z,0
2017-07-25T00:26:58.490Z,0
2017-07-25T00:28:58.544Z,0
2017-07-25T00:29:58.244Z,0
2017-07-25T00:30:58.581Z,0
2017-07-25T00:32:13.212Z,0
2017-07-25T00:32:58.614Z,0
2017-07-25T00:33:58.672Z,0
2017-07-25T00:35:13.313Z,0
2017-07-25T00:35:58.702Z,0
2017-07-25T00:37:58.753Z,0
2017-07-25T00:38:58.773Z,0
2017-07-25T00:39:58.803Z,0
2017-07-25T00:40:58.498Z,0
2017-07-25T00:41:58.547Z,0
2017-07-25T00:43:58.287Z,0
2017-07-25T00:44:58.926Z,0
2017-07-25T00:45:58.948Z,0
2017-07-25T00:48:13.576Z,0
2017-07-25T00:49:13.626Z,0
2017-07-25T00:49:59.034Z,0
2017-07-25T00:50:58.784Z,0
2017-07-25T00:51:59.101Z,0
2017-07-25T00:52:58.809Z,0
2017-07-25T00:53:59.110Z,0
2017-07-25T00:54:58.844Z,0
2017-07-25T00:55:59.198Z,0
2017-07-25T00:56:58.902Z,0
2017-07-25T00:57:59.295Z,0
2017-07-25T00:58:59.294Z,0
2017-07-25T00:59:58.975Z,0
2017-07-25T01:01:13.278Z,0
2017-07-25T01:02:13.630Z,0
2017-07-25T01:02:59.364Z,0
2017-07-25T01:04:27.978Z,0
2017-07-25T01:04:59.393Z,0
2017-07-25T01:05:59.122Z,0
2017-07-25T01:06:59.143Z,0
2017-07-25T01:07:59.506Z,0
2017-07-25T01:09:59.530Z,0
2017-07-25T01:10:59.589Z,0
2017-07-25T01:12:14.179Z,0
2017-07-25T01:12:59.303Z,0
2017-07-25T01:14:59.665Z,0
2017-07-25T01:15:59.657Z,0
2017-07-25T01:16:59.705Z,0
2017-07-25T01:17:59.708Z,0
2017-07-25T01:19:00.094Z,0
2017-07-25T01:20:28.964Z,0
2017-07-25T01:20:59.853Z,0
2017-07-25T01:22:14.390Z,0
2017-07-25T01:23:14.440Z,0
2017-07-25T01:23:59.857Z,0
2017-07-25T01:24:59.907Z,0
2017-07-25T01:25:59.912Z,0
2017-07-25T01:27:14.523Z,0
2017-07-25T01:27:59.962Z,0
2017-07-25T01:28:59.972Z,0
2017-07-25T01:30:00.029Z,0
2017-07-25T01:31:00.041Z,0
2017-07-25T01:32:00.069Z,0
2017-07-25T01:32:59.791Z,0
2017-07-25T01:34:00.102Z,0
2017-07-25T01:35:14.743Z,0
2017-07-25T01:35:59.915Z,0
2017-07-25T01:37:00.241Z,0
2017-07-25T01:37:59.907Z,0
2017-07-25T01:39:00.262Z,0
2017-07-25T01:40:00.276Z,0
2017-07-25T01:40:59.655Z,0
2017-07-25T01:42:00.311Z,0
2017-07-25T01:42:59.996Z,0
2017-07-25T01:44:14.330Z,0
2017-07-25T01:45:14.957Z,0
2017-07-25T01:46:15.026Z,0
2017-07-25T01:47:00.110Z,0
2017-07-25T01:47:59.836Z,0
2017-07-25T01:49:00.498Z,0
2017-07-25T01:50:00.188Z,0
2017-07-25T01:50:59.912Z,0
2017-07-25T01:52:00.216Z,0
2017-07-25T01:53:14.855Z,0
2017-07-25T01:54:00.587Z,0
2017-07-25T01:55:00.639Z,0
2017-07-25T01:56:00.661Z,0
2017-07-25T01:57:15.267Z,0
2017-07-25T01:58:00.374Z,0
2017-07-25T01:59:00.418Z,0
2017-07-25T02:00:00.728Z,0
2017-07-25T02:01:15.420Z,0
2017-07-25T02:02:00.764Z,0
2017-07-25T02:03:00.799Z,0
2017-07-25T02:04:15.433Z,0
2017-07-25T02:05:00.855Z,0
2017-07-25T02:06:00.896Z,0
2017-07-25T02:07:15.189Z,0
2017-07-25T02:08:00.338Z,0
2017-07-25T02:09:00.946Z,0
2017-07-25T02:10:01.000Z,0
2017-07-25T02:12:00.735Z,0
2017-07-25T02:13:01.063Z,0
2017-07-25T02:14:01.086Z,0
2017-07-25T02:15:01.099Z,0
2017-07-25T02:16:01.106Z,0
2017-07-25T02:17:00.839Z,0
2017-07-25T02:18:01.169Z,0
2017-07-25T02:19:01.214Z,0
2017-07-25T02:20:00.578Z,0
2017-07-25T02:21:01.257Z,0
2017-07-25T02:22:00.956Z,0
2017-07-25T02:23:15.934Z,0
2017-07-25T02:24:01.325Z,0
2017-07-25T02:25:01.040Z,0
2017-07-25T02:26:01.064Z,0
2017-07-25T02:27:01.404Z,0
2017-07-25T02:28:16.018Z,0
2017-07-25T02:29:01.496Z,0
2017-07-25T02:30:01.172Z,0
2017-07-25T02:31:01.178Z,0
2017-07-25T02:32:01.501Z,0
2017-07-25T02:33:01.249Z,0
2017-07-25T02:34:16.139Z,0
2017-07-25T02:35:01.589Z,0
2017-07-25T02:36:01.619Z,0
2017-07-25T02:37:01.622Z,0
2017-07-25T02:38:01.893Z,0
2017-07-25T02:39:15.957Z,0
2017-07-25T02:40:01.706Z,0
2017-07-25T02:41:01.712Z,0
2017-07-25T02:42:01.782Z,0
2017-07-25T02:43:01.780Z,0
2017-07-25T02:44:01.805Z,0
2017-07-25T02:45:01.795Z,0
2017-07-25T02:46:01.854Z,0
2017-07-25T02:48:16.494Z,0
2017-07-25T02:49:01.942Z,0
2017-07-25T02:50:01.923Z,0
2017-07-25T02:51:16.264Z,0
2017-07-25T02:52:02.001Z,0
2017-07-25T02:53:02.064Z,0
2017-07-25T02:54:16.332Z,0
2017-07-25T02:55:16.338Z,0
2017-07-25T02:56:02.058Z,0
2017-07-25T02:57:01.813Z,0
2017-07-25T02:58:02.130Z,0
2017-07-25T02:59:02.177Z,0
2017-07-25T03:00:02.161Z,0
2017-07-25T03:01:02.218Z,0
2017-07-25T03:02:01.889Z,0
2017-07-25T03:03:16.851Z,0
2017-07-25T03:04:02.274Z,0
2017-07-25T03:05:01.686Z,0
2017-07-25T03:06:16.906Z,0
2017-07-25T03:07:02.369Z,0
2017-07-25T03:08:02.363Z,0
2017-07-25T03:09:02.090Z,0
2017-07-25T03:10:16.696Z,0
2017-07-25T03:11:02.129Z,0
2017-07-25T03:12:02.137Z,0
2017-07-25T03:13:17.078Z,0
2017-07-25T03:14:17.123Z,0
2017-07-25T03:15:16.508Z,0
2017-07-25T03:16:02.570Z,0
2017-07-25T03:17:16.870Z,0
2017-07-25T03:18:02.622Z,0
2017-07-25T03:19:02.620Z,0
2017-07-25T03:20:02.714Z,0
2017-07-25T03:21:02.692Z,0
2017-07-25T03:22:02.704Z,0
2017-07-25T03:24:02.752Z,0
2017-07-25T03:25:02.770Z,0
2017-07-25T03:26:02.848Z,0
2017-07-25T03:27:02.836Z,0
2017-07-25T03:28:02.850Z,0
2017-07-25T03:29:02.542Z,0
2017-07-25T03:30:02.881Z,0
2017-07-25T03:31:17.518Z,0
2017-07-25T03:32:02.635Z,0
2017-07-25T03:33:02.665Z,0
2017-07-25T03:34:02.976Z,0
2017-07-25T03:35:02.398Z,0
2017-07-25T03:36:03.011Z,0
2017-07-25T03:37:03.052Z,0
2017-07-25T03:38:03.055Z,0
2017-07-25T03:39:03.115Z,0
2017-07-25T03:40:03.174Z,0
2017-07-25T03:41:02.850Z,0
2017-07-25T03:42:17.767Z,0
2017-07-25T03:43:03.193Z,0
2017-07-25T03:44:03.231Z,0
2017-07-25T03:45:02.942Z,0
2017-07-25T03:46:17.861Z,0
2017-07-25T03:47:17.895Z,0
2017-07-25T03:48:17.932Z,0
2017-07-25T03:49:03.356Z,0
2017-07-25T03:50:18.007Z,0
2017-07-25T03:51:17.974Z,0
2017-07-25T03:52:18.033Z,0
2017-07-25T03:53:03.416Z,0
2017-07-25T03:54:03.471Z,0
2017-07-25T03:55:17.780Z,0
2017-07-25T03:56:03.508Z,0
2017-07-25T03:57:03.558Z,0
2017-07-25T03:58:18.144Z,0
2017-07-25T03:59:02.975Z,0
2017-07-25T04:00:18.181Z,0
2017-07-25T04:01:03.044Z,0
2017-07-25T04:02:03.672Z,0
2017-07-25T04:03:03.691Z,0
2017-07-25T04:04:18.312Z,0
2017-07-25T04:05:18.341Z,0
2017-07-25T04:06:03.444Z,0
2017-07-25T04:07:18.361Z,0
2017-07-25T04:08:03.836Z,0
2017-07-25T04:09:03.814Z,0
2017-07-25T04:10:04.150Z,5
2017-07-25T04:11:03.564Z,5
2017-07-25T04:12:03.881Z,5
2017-07-25T04:13:03.922Z,5
2017-07-25T04:14:18.243Z,5
2017-07-25T04:15:03.942Z,5
2017-07-25T04:16:18.592Z,5
2017-07-25T04:17:18.888Z,5
2017-07-25T04:18:04.018Z,5
2017-07-25T04:19:04.066Z,5
2017-07-25T04:20:04.075Z,5
2017-07-25T04:21:18.704Z,5
2017-07-25T04:22:04.125Z,5
2017-07-25T04:23:18.769Z,5
2017-07-25T04:24:18.438Z,5
2017-07-25T04:26:18.829Z,5
2017-07-25T04:27:04.241Z,5
2017-07-25T04:28:03.978Z,5
2017-07-25T04:29:04.339Z,5
2017-07-25T04:30:18.921Z,5
2017-07-25T04:31:04.013Z,5
2017-07-25T04:32:04.347Z,5
2017-07-25T04:33:04.411Z,5
2017-07-25T04:34:33.293Z,5
2017-07-25T04:35:18.727Z,5
2017-07-25T04:38:04.525Z,5
2017-07-25T04:39:19.097Z,5
2017-07-25T04:40:04.568Z,5
2017-07-25T04:41:04.275Z,5
2017-07-25T04:42:04.614Z,5
2017-07-25T04:44:04.653Z,5
2017-07-25T04:45:18.962Z,5
2017-07-25T04:46:04.399Z,5
2017-07-25T04:47:04.693Z,5
2017-07-25T04:48:04.759Z,5
2017-07-25T04:49:04.746Z,5
2017-07-25T04:50:04.784Z,5
2017-07-25T04:51:04.814Z,5
2017-07-25T04:52:04.535Z,5
2017-07-25T04:53:04.572Z,5
2017-07-25T04:54:04.889Z,5
2017-07-25T04:55:04.580Z,5
2017-07-25T04:57:05.002Z,10
2017-07-25T05:00:19.639Z,10
2017-07-25T05:01:05.049Z,10
2017-07-25T05:02:04.756Z,10
2017-07-25T05:03:04.815Z,10
2017-07-25T05:04:19.721Z,10
2017-07-25T05:05:04.839Z,10
2017-07-25T05:06:04.869Z,10
2017-07-25T05:07:04.872Z,5
2017-07-25T05:08:04.909Z,5
2017-07-25T05:09:04.938Z,5
2017-07-25T05:10:04.965Z,5
2017-07-25T05:11:04.979Z,5
2017-07-25T05:12:19.589Z,5
2017-07-25T05:13:05.324Z,5
2017-07-25T05:14:05.376Z,5
2017-07-25T05:15:05.086Z,5
2017-07-25T05:16:05.426Z,10
2017-07-25T05:17:19.455Z,10
2017-07-25T05:18:19.744Z,10
2017-07-25T05:19:05.166Z,10
2017-07-25T05:20:20.081Z,10
2017-07-25T05:21:05.534Z,10
2017-07-25T05:22:04.912Z,10
2017-07-25T05:23:20.182Z,10
2017-07-25T05:24:20.183Z,10
2017-07-25T05:25:05.613Z,10
2017-07-25T05:26:05.344Z,10
2017-07-25T05:28:05.078Z,10
2017-07-25T05:29:05.413Z,10
2017-07-25T05:30:05.443Z,10
2017-07-25T05:31:05.750Z,15
2017-07-25T05:32:05.804Z,20
2017-07-25T05:33:20.086Z,25
2017-07-25T05:34:19.797Z,25
2017-07-25T05:35:05.550Z,20
2017-07-25T05:36:05.895Z,25
2017-07-25T05:37:05.916Z,35
2017-07-25T05:38:05.939Z,35
2017-07-25T05:39:05.017Z,35
2017-07-25T05:40:05.993Z,35
2017-07-25T05:41:06.023Z,40
2017-07-25T05:42:06.035Z,40
2017-07-25T05:43:06.028Z,40
2017-07-25T05:44:05.763Z,40
2017-07-25T05:45:20.379Z,40
2017-07-25T05:46:06.129Z,40
2017-07-25T05:47:05.841Z,30
2017-07-25T05:48:20.132Z,25
2017-07-25T05:49:35.391Z,20
2017-07-25T05:50:06.195Z,25
2017-07-25T05:51:20.823Z,25
2017-07-25T05:52:20.558Z,20
2017-07-25T05:53:05.973Z,20
2017-07-25T05:54:20.605Z,20
2017-07-25T05:55:06.317Z,15
2017-07-25T05:56:06.037Z,15
2017-07-25T05:57:20.960Z,20
2017-07-25T05:58:06.106Z,25
2017-07-25T05:59:06.129Z,25
2017-07-25T06:00:06.444Z,25
2017-07-25T06:01:06.539Z,20
2017-07-25T06:02:06.170Z,20
2017-07-25T06:03:05.899Z,20
2017-07-25T06:04:06.596Z,20
2017-07-25T06:05:20.849Z,25
2017-07-25T06:07:21.200Z,25
2017-07-25T06:08:06.621Z,25
2017-07-25T06:09:06.775Z,30
2017-07-25T06:10:06.674Z,35
2017-07-25T06:11:06.715Z,40
2017-07-25T06:12:06.397Z,40
2017-07-25T06:13:06.460Z,45
2017-07-25T06:14:06.456Z,45
2017-07-25T06:15:21.096Z,45
2017-07-25T06:16:06.826Z,40
2017-07-25T06:17:06.870Z,40
2017-07-25T06:18:06.564Z,40
2017-07-25T06:19:21.186Z,40
2017-07-25T06:20:36.127Z,35
2017-07-25T06:21:21.579Z,30
2017-07-25T06:22:06.341Z,30
2017-07-25T06:23:06.994Z,30
2017-07-25T06:24:07.017Z,30
2017-07-25T06:25:21.642Z,30
2017-07-25T06:26:07.053Z,35
2017-07-25T06:27:07.048Z,35
2017-07-25T06:28:21.758Z,35
2017-07-25T06:30:06.847Z,40
2017-07-25T06:31:06.874Z,45
2017-07-25T06:32:06.918Z,45
2017-07-25T06:33:07.255Z,40
2017-07-25T06:34:21.844Z,40
2017-07-25T06:35:07.297Z,40
2017-07-25T06:36:07.316Z,40
2017-07-25T06:37:07.332Z,35
2017-07-25T06:38:07.342Z,35
2017-07-25T06:39:07.367Z,40
2017-07-25T06:40:07.393Z,40
2017-07-25T06:41:07.433Z,35
2017-07-25T06:42:07.453Z,30
2017-07-25T06:43:22.063Z,30
2017-07-25T06:44:07.504Z,30
2017-07-25T06:45:07.522Z,30
2017-07-25T06:46:07.220Z,35
2017-07-25T06:47:07.573Z,30
2017-07-25T06:48:07.546Z,30
2017-07-25T06:49:07.607Z,30
2017-07-25T06:51:07.644Z,30
2017-07-25T06:52:22.291Z,30
2017-07-25T06:53:07.695Z,35
2017-07-25T06:54:07.119Z,35
2017-07-25T06:56:07.770Z,40
2017-07-25T06:57:07.786Z,35
2017-07-25T06:58:07.204Z,35
2017-07-25T06:59:07.812Z,35
2017-07-25T07:01:07.476Z,35
2017-07-25T07:02:07.936Z,35
2017-07-25T07:03:07.934Z,35
2017-07-25T07:04:08.016Z,35
2017-07-25T07:06:07.689Z,30
2017-07-25T07:07:07.729Z,35
2017-07-25T07:08:22.407Z,40
2017-07-25T07:09:07.787Z,40
2017-07-25T07:10:08.085Z,40
2017-07-25T07:11:08.140Z,40
2017-07-25T07:12:07.824Z,35
2017-07-25T07:13:08.234Z,35
2017-07-25T07:14:07.258Z,35
2017-07-25T07:15:22.838Z,35
2017-07-25T07:16:22.863Z,35
2017-07-25T07:17:08.268Z,35
2017-07-25T07:18:37.185Z,35
2017-07-25T07:19:23.004Z,35
2017-07-25T07:21:08.424Z,30
2017-07-25T07:22:22.662Z,30
2017-07-25T07:23:23.020Z,30
2017-07-25T07:24:22.416Z,30
2017-07-25T07:25:08.472Z,30
2017-07-25T07:27:08.598Z,35
2017-07-25T07:28:08.513Z,35
2017-07-25T07:29:08.562Z,35
2017-07-25T07:30:08.593Z,35
2017-07-25T07:31:08.615Z,35
2017-07-25T07:32:08.300Z,35
2017-07-25T07:33:08.665Z,35
2017-07-25T07:34:23.271Z,35
2017-07-25T07:35:08.685Z,35
2017-07-25T07:36:08.760Z,35
2017-07-25T07:37:08.749Z,35
2017-07-25T07:38:23.377Z,30
2017-07-25T07:39:08.778Z,30
2017-07-25T07:40:23.419Z,25
2017-07-25T07:41:08.532Z,25
2017-07-25T07:42:08.883Z,25
2017-07-25T07:43:08.928Z,20
2017-07-25T07:44:08.890Z,20
2017-07-25T07:45:08.678Z,25
2017-07-25T07:46:08.643Z,20
2017-07-25T07:47:23.626Z,20
2017-07-25T07:48:08.982Z,20
2017-07-25T07:49:09.020Z,20
2017-07-25T07:50:09.048Z,20
2017-07-25T07:51:09.067Z,20
2017-07-25T07:52:09.092Z,20
2017-07-25T07:53:09.121Z,20
2017-07-25T07:54:09.137Z,20
2017-07-25T07:55:23.441Z,20
2017-07-25T07:56:08.886Z,20
2017-07-25T07:57:08.625Z,20
2017-07-25T07:58:09.244Z,20
2017-07-25T07:59:08.960Z,20
2017-07-25T08:00:23.870Z,20
2017-07-25T08:01:23.910Z,20
2017-07-25T08:02:09.343Z,20
2017-07-25T08:03:38.555Z,20
2017-07-25T08:04:09.086Z,25
2017-07-25T08:05:09.401Z,25
2017-07-25T08:06:09.432Z,25
2017-07-25T08:07:09.121Z,25
2017-07-25T08:08:09.691Z,25
2017-07-25T08:09:09.490Z,25
2017-07-25T08:11:09.858Z,25
2017-07-25T08:12:24.163Z,35
2017-07-25T08:13:09.595Z,35
2017-07-25T08:14:09.609Z,40
2017-07-25T08:15:09.345Z,50
2017-07-25T08:16:38.847Z,45
2017-07-25T08:17:24.307Z,45
2017-07-25T08:19:09.750Z,60
2017-07-25T08:20:09.457Z,60
2017-07-25T08:21:09.799Z,75
2017-07-25T08:22:09.484Z,80
2017-07-25T08:23:09.887Z,85
2017-07-25T08:24:09.893Z,80
2017-07-25T08:25:24.161Z,75
2017-07-25T08:27:39.110Z,55
2017-07-25T08:28:09.968Z,55
2017-07-25T08:29:09.969Z,50
2017-07-25T08:30:24.296Z,50
2017-07-25T08:31:09.720Z,50
2017-07-25T08:32:10.015Z,50
2017-07-25T08:33:09.821Z,55
2017-07-25T08:34:10.090Z,55
2017-07-25T08:35:09.792Z,45
2017-07-25T08:36:24.792Z,45
2017-07-25T08:37:10.129Z,45
2017-07-25T08:38:24.789Z,50
2017-07-25T08:39:24.516Z,55
2017-07-25T08:40:09.608Z,55
2017-07-25T08:41:24.860Z,55
2017-07-25T08:42:09.966Z,50
2017-07-25T08:43:24.958Z,45
2017-07-25T08:44:10.024Z,45
2017-07-25T08:46:10.391Z,40
2017-07-25T08:47:10.073Z,40
2017-07-25T08:48:10.135Z,45
2017-07-25T08:49:24.752Z,55
2017-07-25T08:50:10.453Z,65
2017-07-25T08:51:10.507Z,90
2017-07-25T08:52:10.519Z,105
2017-07-25T08:53:10.227Z,100
2017-07-25T08:54:24.844Z,105
2017-07-25T08:55:10.925Z,140
2017-07-25T08:56:24.912Z,155
2017-07-25T08:57:10.005Z,150
2017-07-25T08:58:25.264Z,145
2017-07-25T08:59:25.276Z,130
2017-07-25T09:00:10.088Z,115
2017-07-25T09:01:10.430Z,90
2017-07-25T09:02:25.361Z,65
2017-07-25T09:03:10.799Z,60
2017-07-25T09:04:25.430Z,55
2017-07-25T09:05:10.836Z,55
2017-07-25T09:06:10.526Z,60
2017-07-25T09:07:25.479Z,70
2017-07-25T09:08:10.898Z,75
2017-07-25T09:09:10.934Z,75
2017-07-25T09:10:10.647Z,70
2017-07-25T09:11:10.963Z,65
2017-07-25T09:12:25.655Z,55
2017-07-25T09:13:11.054Z,55
2017-07-25T09:14:11.056Z,50
2017-07-25T09:16:11.142Z,50
2017-07-25T09:17:25.706Z,50
2017-07-25T09:19:11.170Z,50
2017-07-25T09:20:11.198Z,50
2017-07-25T09:21:10.919Z,55
2017-07-25T09:22:10.923Z,55
2017-07-25T09:23:11.284Z,65
2017-07-25T09:24:25.872Z,75
2017-07-25T09:25:10.998Z,80
2017-07-25T09:26:25.936Z,100
2017-07-25T09:27:26.022Z,105
2017-07-25T09:28:11.058Z,115
2017-07-25T09:29:11.093Z,130
2017-07-25T09:30:26.031Z,145
2017-07-25T09:31:11.135Z,155
2017-07-25T09:32:11.488Z,175
2017-07-25T09:33:26.089Z,195
2017-07-25T09:34:11.592Z,205
2017-07-25T09:35:11.551Z,225
2017-07-25T09:36:11.286Z,215
2017-07-25T09:37:11.586Z,190
2017-07-25T09:38:11.622Z,175
2017-07-25T09:40:11.369Z,170
2017-07-25T09:41:11.702Z,170
2017-07-25T09:42:11.721Z,160
2017-07-25T09:43:11.428Z,140
2017-07-25T09:44:11.467Z,110
2017-07-25T09:45:11.471Z,90
2017-07-25T09:46:26.428Z,70
2017-07-25T09:47:11.515Z,65
2017-07-25T09:48:11.579Z,65
2017-07-25T09:49:11.628Z,70
2017-07-25T09:50:11.613Z,80
2017-07-25T09:51:11.618Z,90
2017-07-25T09:52:11.642Z,100
2017-07-25T09:53:11.672Z,95
2017-07-25T09:54:11.736Z,85
2017-07-25T09:55:11.720Z,80
2017-07-25T09:56:11.434Z,90
2017-07-25T09:57:12.088Z,100
2017-07-25T09:58:26.687Z,115
2017-07-25T09:59:11.842Z,120
2017-07-25T10:00:11.822Z,120
2017-07-25T10:01:26.471Z,130
2017-07-25T10:03:26.819Z,180
2017-07-25T10:04:12.315Z,205
2017-07-25T10:05:11.709Z,245
2017-07-25T10:06:26.944Z,275
2017-07-25T10:07:26.918Z,290
2017-07-25T10:08:11.461Z,295
2017-07-25T10:09:12.433Z,290
2017-07-25T10:10:12.121Z,290
2017-07-25T10:11:26.697Z,300
2017-07-25T10:12:12.152Z,285
2017-07-25T10:13:27.059Z,270
2017-07-25T10:14:12.497Z,260
2017-07-25T10:15:12.214Z,260
2017-07-25T10:16:12.556Z,260
2017-07-25T10:17:12.563Z,265
2017-07-25T10:18:27.187Z,265
2017-07-25T10:19:12.624Z,265
2017-07-25T10:20:12.635Z,265
2017-07-25T10:21:12.738Z,260
2017-07-25T10:22:27.005Z,255
2017-07-25T10:23:12.718Z,255
2017-07-25T10:24:12.733Z,265
2017-07-25T10:25:12.777Z,245
2017-07-25T10:26:12.482Z,220
2017-07-25T10:27:12.819Z,200
2017-07-25T10:28:27.428Z,190
2017-07-25T10:29:12.565Z,185
2017-07-25T10:30:12.071Z,180
2017-07-25T10:31:27.534Z,185
2017-07-25T10:32:12.960Z,195
2017-07-25T10:33:27.260Z,205
2017-07-25T10:35:12.701Z,205
2017-07-25T10:37:27.380Z,205
2017-07-25T10:38:27.702Z,210
2017-07-25T10:39:12.805Z,210
2017-07-25T10:40:12.841Z,210
2017-07-25T10:41:12.901Z,215
2017-07-25T10:42:12.890Z,225
2017-07-25T10:43:12.918Z,230
2017-07-25T10:44:12.626Z,230
2017-07-25T10:45:12.947Z,220
2017-07-25T10:46:13.290Z,215
2017-07-25T10:47:13.331Z,205
2017-07-25T10:48:13.041Z,195
2017-07-25T10:49:13.080Z,195
2017-07-25T10:50:42.585Z,205
2017-07-25T10:51:13.434Z,205
2017-07-25T10:52:13.448Z,225
2017-07-25T10:53:28.072Z,225
2017-07-25T10:54:13.548Z,220
2017-07-25T10:55:13.539Z,225
2017-07-25T10:56:27.848Z,220
2017-07-25T10:57:12.944Z,215
2017-07-25T10:58:13.237Z,210
2017-07-25T10:59:28.226Z,200
2017-07-25T11:00:28.257Z,200
2017-07-25T11:01:13.359Z,200
2017-07-25T11:02:13.394Z,195
2017-07-25T11:04:13.106Z,195
2017-07-25T11:05:28.423Z,200
2017-07-25T11:06:28.380Z,210
2017-07-25T11:07:27.853Z,225
2017-07-25T11:08:13.846Z,220
2017-07-25T11:09:13.867Z,230
2017-07-25T11:10:28.492Z,240
2017-07-25T11:11:13.944Z,245
2017-07-25T11:12:28.554Z,250
2017-07-25T11:13:13.994Z,250
2017-07-25T11:14:14.035Z,250
2017-07-25T11:15:14.016Z,250
2017-07-25T11:16:28.337Z,240
2017-07-25T11:17:14.064Z,230
2017-07-25T11:18:13.811Z,210
2017-07-25T11:19:14.113Z,190
2017-07-25T11:20:14.158Z,165
2017-07-25T11:21:13.865Z,150
2017-07-25T11:22:13.969Z,135
2017-07-25T11:23:14.211Z,120
2017-07-25T11:24:14.244Z,110
2017-07-25T11:25:13.975Z,105
2017-07-25T11:26:14.009Z,100
2017-07-25T11:27:14.345Z,95
2017-07-25T11:28:14.101Z,85
2017-07-25T11:29:14.061Z,80
2017-07-25T11:30:14.095Z,70
2017-07-25T11:31:14.441Z,70
2017-07-25T11:32:14.162Z,65
2017-07-25T11:33:14.184Z,70
2017-07-25T11:34:14.214Z,70
2017-07-25T11:35:14.600Z,75
2017-07-25T11:36:14.365Z,80
2017-07-25T11:37:28.866Z,85
2017-07-25T11:38:14.318Z,85
2017-07-25T11:39:14.981Z,85
2017-07-25T11:40:14.443Z,85
2017-07-25T11:41:14.837Z,85
2017-07-25T11:42:29.317Z,80
2017-07-25T11:43:14.799Z,80
2017-07-25T11:44:14.749Z,75
2017-07-25T11:45:29.239Z,70
2017-07-25T11:46:14.808Z,70
2017-07-25T11:47:14.887Z,70
2017-07-25T11:48:29.192Z,65
2017-07-25T11:49:14.585Z,70
2017-07-25T11:50:14.617Z,70
2017-07-25T11:51:14.319Z,70
2017-07-25T11:52:15.009Z,75
2017-07-25T11:53:29.575Z,75
2017-07-25T11:54:14.701Z,75
2017-07-25T11:55:15.004Z,75
2017-07-25T11:56:15.066Z,80
2017-07-25T11:57:15.247Z,80
2017-07-25T11:58:14.813Z,80
2017-07-25T11:59:15.169Z,80
2017-07-25T12:00:15.166Z,80
2017-07-25T12:01:14.874Z,80
2017-07-25T12:02:14.900Z,80
2017-07-25T12:03:15.230Z,80
2017-07-25T12:04:15.265Z,80
2017-07-25T12:05:29.881Z,80
2017-07-25T12:07:15.336Z,70
2017-07-25T12:08:29.649Z,65
2017-07-25T12:09:29.667Z,60
2017-07-25T12:10:15.401Z,60
2017-07-25T12:11:15.485Z,60
2017-07-25T12:12:15.471Z,60
2017-07-25T12:13:15.497Z,60
2017-07-25T12:14:15.193Z,60
2017-07-25T12:16:15.322Z,55
2017-07-25T12:17:30.217Z,60
2017-07-25T12:18:15.608Z,60
2017-07-25T12:19:15.615Z,60
2017-07-25T12:20:15.362Z,60
2017-07-25T12:21:15.669Z,55
2017-07-25T12:22:15.702Z,60
2017-07-25T12:23:15.798Z,60
2017-07-25T12:24:15.803Z,65
2017-07-25T12:25:30.369Z,65
2017-07-25T12:27:30.417Z,70
2017-07-25T12:28:15.573Z,70
2017-07-25T12:29:15.895Z,70
2017-07-25T12:30:30.706Z,70
2017-07-25T12:31:16.022Z,75
2017-07-25T12:32:15.953Z,75
2017-07-25T12:33:16.078Z,75
2017-07-25T12:35:16.087Z,75
2017-07-25T12:36:16.049Z,75
2017-07-25T12:37:16.137Z,75
2017-07-25T12:38:16.102Z,75
2017-07-25T12:39:16.133Z,75
2017-07-25T12:40:30.796Z,75
2017-07-25T12:41:16.179Z,80
2017-07-25T12:42:16.309Z,80
2017-07-25T12:43:16.331Z,80
2017-07-25T12:44:30.860Z,80
2017-07-25T12:45:16.265Z,80
2017-07-25T12:46:16.364Z,80
2017-07-25T12:47:30.903Z,80
2017-07-25T12:48:16.034Z,75
2017-07-25T12:49:16.429Z,75
2017-07-25T12:50:15.795Z,70
2017-07-25T12:51:16.113Z,70
2017-07-25T12:52:16.135Z,65
2017-07-25T12:53:16.482Z,65
2017-07-25T12:54:16.551Z,65
2017-07-25T12:55:16.507Z,65
2017-07-25T12:57:16.551Z,60
2017-07-25T12:58:16.608Z,60
2017-07-25T12:59:16.352Z,65
2017-07-25T13:00:16.501Z,70
2017-07-25T13:01:16.710Z,80
2017-07-25T13:02:16.449Z,85
2017-07-25T13:03:16.697Z,90
2017-07-25T13:04:16.122Z,95
2017-07-25T13:05:31.415Z,85
2017-07-25T13:06:16.533Z,80
2017-07-25T13:07:16.554Z,75
2017-07-25T13:08:16.517Z,70
2017-07-25T13:09:16.261Z,70
2017-07-25T13:10:16.254Z,70
2017-07-25T13:11:16.615Z,70
2017-07-25T13:12:31.528Z,70
2017-07-25T13:13:31.273Z,70
2017-07-25T13:14:16.770Z,80
2017-07-25T13:16:17.040Z,80
2017-07-25T13:17:16.792Z,85
2017-07-25T13:18:16.785Z,85
2017-07-25T13:19:16.786Z,85
2017-07-25T13:20:17.134Z,85
2017-07-25T13:21:16.587Z,80
2017-07-25T13:22:17.177Z,80
2017-07-25T13:23:16.912Z,80
2017-07-25T13:24:17.224Z,80
2017-07-25T13:25:17.260Z,85
2017-07-25T13:26:17.008Z,90
2017-07-25T13:27:17.349Z,90
2017-07-25T13:28:31.319Z,85
2017-07-25T13:29:16.738Z,80
2017-07-25T13:30:17.396Z,75
2017-07-25T13:31:17.075Z,75
2017-07-25T13:32:17.445Z,75
2017-07-25T13:33:17.425Z,75
2017-07-25T13:34:17.186Z,75
2017-07-25T13:35:17.488Z,80
2017-07-25T13:36:17.523Z,80
2017-07-25T13:37:31.842Z,75
2017-07-25T13:38:17.562Z,75
2017-07-25T13:39:17.597Z,75
2017-07-25T13:40:17.314Z,75
2017-07-25T13:41:17.026Z,70
2017-07-25T13:42:17.717Z,70
2017-07-25T13:43:17.704Z,70
2017-07-25T13:44:32.304Z,70
2017-07-25T13:45:17.441Z,70
2017-07-25T13:46:17.450Z,70
2017-07-25T13:47:32.457Z,75
2017-07-25T13:48:17.493Z,75
2017-07-25T13:49:17.837Z,75
2017-07-25T13:50:18.112Z,80
2017-07-25T13:51:17.591Z,80
2017-07-25T13:52:17.919Z,80
2017-07-25T13:53:17.998Z,85
2017-07-25T13:54:18.005Z,85
2017-07-25T13:55:18.001Z,85
2017-07-25T13:56:17.973Z,85
2017-07-25T13:57:18.034Z,85
2017-07-25T13:58:18.055Z,85
2017-07-25T13:59:18.148Z,85
2017-07-25T14:00:32.690Z,85
2017-07-25T14:01:18.136Z,85
2017-07-25T14:02:32.758Z,85
2017-07-25T14:03:18.194Z,85
2017-07-25T14:04:17.944Z,85
2017-07-25T14:05:17.939Z,80
2017-07-25T14:06:18.236Z,80
2017-07-25T14:07:18.278Z,80
2017-07-25T14:08:18.340Z,75
2017-07-25T14:09:18.346Z,75
2017-07-25T14:10:18.365Z,80
2017-07-25T14:11:18.370Z,80
2017-07-25T14:12:18.393Z,80
2017-07-25T14:13:18.175Z,80
2017-07-25T14:14:33.029Z,85
2017-07-25T14:15:33.075Z,85
2017-07-25T14:16:18.184Z,85
2017-07-25T14:17:33.115Z,85
2017-07-25T14:18:33.137Z,90
2017-07-25T14:19:18.586Z,85
2017-07-25T14:20:18.627Z,85
2017-07-25T14:21:32.895Z,85
2017-07-25T14:22:18.340Z,85
2017-07-25T14:23:33.261Z,85
2017-07-25T14:24:18.374Z,85
2017-07-25T14:25:18.403Z,80
2017-07-25T14:26:33.037Z,85
2017-07-25T14:27:18.468Z,80
2017-07-25T14:28:33.380Z,80
2017-07-25T14:30:18.827Z,80
2017-07-25T14:31:33.446Z,80
2017-07-25T14:32:18.578Z,75
2017-07-25T14:33:18.609Z,75
2017-07-25T14:34:33.241Z,70
2017-07-25T14:35:18.954Z,70
2017-07-25T14:36:19.033Z,70
2017-07-25T14:38:18.413Z,65
2017-07-25T14:39:33.658Z,65
2017-07-25T14:41:18.503Z,65
2017-07-25T14:42:19.186Z,65
2017-07-25T14:43:19.145Z,65
2017-07-25T14:44:18.878Z,70
2017-07-25T14:45:19.268Z,70
2017-07-25T14:46:19.225Z,65
2017-07-25T14:47:48.451Z,65
2017-07-25T14:48:18.741Z,65
2017-07-25T14:49:18.986Z,65
2017-07-25T14:50:19.302Z,70
2017-07-25T14:51:19.364Z,70
2017-07-25T14:52:18.744Z,75
2017-07-25T14:53:19.413Z,75
2017-07-25T14:54:19.417Z,80
2017-07-25T14:55:19.130Z,85
2017-07-25T14:56:34.087Z,85
2017-07-25T14:57:19.494Z,90
2017-07-25T14:58:34.126Z,95
2017-07-25T14:59:19.215Z,95
2017-07-25T15:00:19.574Z,95
2017-07-25T15:01:33.872Z,100
2017-07-25T15:02:19.596Z,100
2017-07-25T15:03:34.247Z,105
2017-07-25T15:04:19.675Z,110
2017-07-25T15:05:19.700Z,115
2017-07-25T15:06:34.311Z,120
2017-07-25T15:07:19.438Z,120
2017-07-25T15:08:19.763Z,120
2017-07-25T15:09:34.389Z,120